sensor_id;sensor_type;location;lat;lon;timestamp;pressure;altitude;pressure_sealevel;temperature;humidity
54808;BME280;40708;50.364;7.550;2023-04-26T00:02:16;100895.84;;;4.08;100.00
54808;BME280;40708;50.364;7.550;2023-04-26T00:04:42;100895.13;;;4.12;100.00
54808;BME280;40708;50.364;7.550;2023-04-26T00:07:07;100900.56;;;4.18;100.00
54808;BME280;40708;50.364;7.550;2023-04-26T00:09:33;100897.22;;;4.22;100.00
54808;BME280;40708;50.364;7.550;2023-04-26T00:11:58;100894.63;;;4.24;100.00
54808;BME280;40708;50.364;7.550;2023-04-26T00:14:24;100901.63;;;4.24;100.00
54808;BME280;40708;50.364;7.550;2023-04-26T00:16:49;100896.28;;;4.20;100.00
54808;BME280;40708;50.364;7.550;2023-04-26T00:19:15;100911.94;;;4.17;100.00
54808;BME280;40708;50.364;7.550;2023-04-26T00:21:41;100911.56;;;4.07;100.00
54808;BME280;40708;50.364;7.550;2023-04-26T00:24:07;100926.97;;;3.96;100.00
54808;BME280;40708;50.364;7.550;2023-04-26T00:26:32;100925.81;;;3.88;100.00
54808;BME280;40708;50.364;7.550;2023-04-26T00:28:59;100921.25;;;3.83;100.00
54808;BME280;40708;50.364;7.550;2023-04-26T00:31:24;100918.41;;;3.77;100.00
54808;BME280;40708;50.364;7.550;2023-04-26T00:33:50;100928.78;;;3.74;100.00
54808;BME280;40708;50.364;7.550;2023-04-26T00:36:15;100945.09;;;3.65;100.00
54808;BME280;40708;50.364;7.550;2023-04-26T00:38:43;100938.56;;;3.54;100.00
54808;BME280;40708;50.364;7.550;2023-04-26T00:41:09;100946.31;;;3.51;100.00
54808;BME280;40708;50.364;7.550;2023-04-26T00:43:35;100950.03;;;3.56;100.00
54808;BME280;40708;50.364;7.550;2023-04-26T00:46:00;100937.59;;;3.50;100.00
54808;BME280;40708;50.364;7.550;2023-04-26T00:48:26;100948.50;;;3.39;100.00
54808;BME280;40708;50.364;7.550;2023-04-26T00:50:51;100946.44;;;3.30;100.00
54808;BME280;40708;50.364;7.550;2023-04-26T00:53:17;100956.44;;;3.18;100.00
54808;BME280;40708;50.364;7.550;2023-04-26T00:55:43;100950.78;;;3.08;100.00
54808;BME280;40708;50.364;7.550;2023-04-26T00:58:09;100956.69;;;3.02;100.00
54808;BME280;40708;50.364;7.550;2023-04-26T01:00:34;100964.16;;;2.91;100.00
54808;BME280;40708;50.364;7.550;2023-04-26T01:03:00;100967.28;;;2.83;100.00
54808;BME280;40708;50.364;7.550;2023-04-26T01:05:26;100967.91;;;2.76;100.00
54808;BME280;40708;50.364;7.550;2023-04-26T01:07:51;100967.53;;;2.67;100.00
54808;BME280;40708;50.364;7.550;2023-04-26T01:10:17;100989.13;;;2.61;100.00
54808;BME280;40708;50.364;7.550;2023-04-26T01:12:42;100994.97;;;2.54;100.00
54808;BME280;40708;50.364;7.550;2023-04-26T01:15:09;100995.41;;;2.44;100.00
54808;BME280;40708;50.364;7.550;2023-04-26T01:17:35;101011.06;;;2.42;100.00
54808;BME280;40708;50.364;7.550;2023-04-26T01:20:02;101022.50;;;2.45;100.00
54808;BME280;40708;50.364;7.550;2023-04-26T01:22:31;101017.94;;;2.40;100.00
54808;BME280;40708;50.364;7.550;2023-04-26T01:24:56;101031.88;;;2.39;100.00
54808;BME280;40708;50.364;7.550;2023-04-26T01:27:22;101028.38;;;2.39;100.00
54808;BME280;40708;50.364;7.550;2023-04-26T01:29:47;101021.78;;;2.28;100.00
54808;BME280;40708;50.364;7.550;2023-04-26T01:32:12;101022.16;;;2.16;100.00
54808;BME280;40708;50.364;7.550;2023-04-26T01:34:38;101033.44;;;2.15;100.00
54808;BME280;40708;50.364;7.550;2023-04-26T01:37:03;101043.28;;;2.21;100.00
54808;BME280;40708;50.364;7.550;2023-04-26T01:39:28;101047.50;;;2.17;100.00
54808;BME280;40708;50.364;7.550;2023-04-26T01:41:56;101050.00;;;2.14;100.00
54808;BME280;40708;50.364;7.550;2023-04-26T01:44:22;101053.16;;;2.07;100.00
54808;BME280;40708;50.364;7.550;2023-04-26T01:46:47;101057.78;;;1.94;100.00
54808;BME280;40708;50.364;7.550;2023-04-26T01:49:12;101062.25;;;1.96;100.00
54808;BME280;40708;50.364;7.550;2023-04-26T01:51:38;101062.41;;;1.99;100.00
54808;BME280;40708;50.364;7.550;2023-04-26T01:54:03;101067.34;;;1.93;100.00
54808;BME280;40708;50.364;7.550;2023-04-26T01:56:28;101078.25;;;2.02;100.00
54808;BME280;40708;50.364;7.550;2023-04-26T01:58:54;101079.47;;;2.10;100.00
54808;BME280;40708;50.364;7.550;2023-04-26T02:01:20;101074.78;;;2.22;100.00
54808;BME280;40708;50.364;7.550;2023-04-26T02:03:46;101079.94;;;2.21;100.00
54808;BME280;40708;50.364;7.550;2023-04-26T02:06:11;101069.47;;;2.02;100.00
54808;BME280;40708;50.364;7.550;2023-04-26T02:08:36;101070.56;;;2.07;100.00
54808;BME280;40708;50.364;7.550;2023-04-26T02:11:01;101070.34;;;2.01;100.00
54808;BME280;40708;50.364;7.550;2023-04-26T02:13:27;101065.78;;;1.97;100.00
54808;BME280;40708;50.364;7.550;2023-04-26T02:15:52;101062.41;;;1.99;100.00
54808;BME280;40708;50.364;7.550;2023-04-26T02:18:17;101067.56;;;1.98;100.00
54808;BME280;40708;50.364;7.550;2023-04-26T02:20:46;101070.16;;;2.17;100.00
54808;BME280;40708;50.364;7.550;2023-04-26T02:23:11;101075.59;;;2.21;100.00
54808;BME280;40708;50.364;7.550;2023-04-26T02:25:37;101071.94;;;2.18;100.00
54808;BME280;40708;50.364;7.550;2023-04-26T02:28:05;101074.50;;;2.16;100.00
54808;BME280;40708;50.364;7.550;2023-04-26T02:30:30;101072.38;;;2.08;100.00
54808;BME280;40708;50.364;7.550;2023-04-26T02:32:56;101067.44;;;1.95;100.00
54808;BME280;40708;50.364;7.550;2023-04-26T02:35:22;101063.16;;;1.77;100.00
54808;BME280;40708;50.364;7.550;2023-04-26T02:37:47;101065.44;;;1.70;100.00
54808;BME280;40708;50.364;7.550;2023-04-26T02:40:19;101080.63;;;1.59;100.00
54808;BME280;40708;50.364;7.550;2023-04-26T02:42:44;101076.69;;;1.50;100.00
54808;BME280;40708;50.364;7.550;2023-04-26T02:45:10;101090.06;;;1.56;100.00
54808;BME280;40708;50.364;7.550;2023-04-26T02:47:35;101100.88;;;1.63;100.00
54808;BME280;40708;50.364;7.550;2023-04-26T02:50:05;101104.19;;;1.78;100.00
54808;BME280;40708;50.364;7.550;2023-04-26T02:52:32;101106.81;;;1.78;100.00
54808;BME280;40708;50.364;7.550;2023-04-26T02:54:57;101119.91;;;1.78;100.00
54808;BME280;40708;50.364;7.550;2023-04-26T02:57:22;101113.63;;;1.75;100.00
54808;BME280;40708;50.364;7.550;2023-04-26T02:59:48;101119.75;;;1.75;100.00
54808;BME280;40708;50.364;7.550;2023-04-26T03:02:13;101119.47;;;1.89;100.00
54808;BME280;40708;50.364;7.550;2023-04-26T03:04:38;101120.44;;;1.91;100.00
54808;BME280;40708;50.364;7.550;2023-04-26T03:07:04;101126.72;;;1.94;100.00
54808;BME280;40708;50.364;7.550;2023-04-26T03:09:29;101121.69;;;1.99;100.00
54808;BME280;40708;50.364;7.550;2023-04-26T03:11:55;101128.66;;;1.98;100.00
54808;BME280;40708;50.364;7.550;2023-04-26T03:14:20;101120.53;;;1.92;100.00
54808;BME280;40708;50.364;7.550;2023-04-26T03:16:45;101122.03;;;1.87;100.00
54808;BME280;40708;50.364;7.550;2023-04-26T03:19:12;101120.03;;;1.82;100.00
54808;BME280;40708;50.364;7.550;2023-04-26T03:21:37;101113.75;;;1.78;100.00
54808;BME280;40708;50.364;7.550;2023-04-26T03:24:03;101118.19;;;1.79;100.00
54808;BME280;40708;50.364;7.550;2023-04-26T03:26:28;101120.72;;;1.77;100.00
54808;BME280;40708;50.364;7.550;2023-04-26T03:28:53;101123.19;;;1.74;100.00
54808;BME280;40708;50.364;7.550;2023-04-26T03:31:19;101120.38;;;1.70;100.00
54808;BME280;40708;50.364;7.550;2023-04-26T03:33:45;101125.00;;;1.58;100.00
54808;BME280;40708;50.364;7.550;2023-04-26T03:36:11;101118.66;;;1.53;100.00
54808;BME280;40708;50.364;7.550;2023-04-26T03:38:36;101126.09;;;1.44;100.00
54808;BME280;40708;50.364;7.550;2023-04-26T03:41:02;101118.88;;;1.38;100.00
54808;BME280;40708;50.364;7.550;2023-04-26T03:43:27;101134.47;;;1.37;100.00
54808;BME280;40708;50.364;7.550;2023-04-26T03:45:52;101131.34;;;1.26;100.00
54808;BME280;40708;50.364;7.550;2023-04-26T03:48:17;101131.13;;;1.22;100.00
54808;BME280;40708;50.364;7.550;2023-04-26T03:50:44;101128.41;;;1.20;100.00
54808;BME280;40708;50.364;7.550;2023-04-26T03:53:10;101129.91;;;1.15;100.00
54808;BME280;40708;50.364;7.550;2023-04-26T03:55:36;101133.88;;;1.07;100.00
54808;BME280;40708;50.364;7.550;2023-04-26T03:58:01;101135.59;;;1.06;100.00
54808;BME280;40708;50.364;7.550;2023-04-26T04:00:27;101135.00;;;0.94;100.00
54808;BME280;40708;50.364;7.550;2023-04-26T04:02:52;101132.69;;;1.00;100.00
54808;BME280;40708;50.364;7.550;2023-04-26T04:05:18;101144.91;;;1.01;100.00
54808;BME280;40708;50.364;7.550;2023-04-26T04:07:43;101153.72;;;1.03;100.00
54808;BME280;40708;50.364;7.550;2023-04-26T04:10:08;101153.19;;;0.93;100.00
54808;BME280;40708;50.364;7.550;2023-04-26T04:12:35;101149.09;;;0.80;100.00
54808;BME280;40708;50.364;7.550;2023-04-26T04:15:00;101153.09;;;0.74;100.00
54808;BME280;40708;50.364;7.550;2023-04-26T04:17:26;101151.00;;;0.67;100.00
54808;BME280;40708;50.364;7.550;2023-04-26T04:19:51;101153.38;;;0.62;100.00
54808;BME280;40708;50.364;7.550;2023-04-26T04:22:16;101165.91;;;0.69;100.00
54808;BME280;40708;50.364;7.550;2023-04-26T04:24:41;101172.78;;;0.67;100.00
54808;BME280;40708;50.364;7.550;2023-04-26T04:27:08;101181.53;;;0.68;100.00
54808;BME280;40708;50.364;7.550;2023-04-26T04:29:33;101190.06;;;0.81;100.00
54808;BME280;40708;50.364;7.550;2023-04-26T04:31:59;101195.56;;;0.87;100.00
54808;BME280;40708;50.364;7.550;2023-04-26T04:34:24;101203.91;;;0.96;100.00
54808;BME280;40708;50.364;7.550;2023-04-26T04:36:50;101213.16;;;1.07;100.00
54808;BME280;40708;50.364;7.550;2023-04-26T04:39:15;101220.91;;;1.22;100.00
54808;BME280;40708;50.364;7.550;2023-04-26T04:41:42;101220.84;;;1.38;100.00
54808;BME280;40708;50.364;7.550;2023-04-26T04:44:19;101222.91;;;1.63;100.00
54808;BME280;40708;50.364;7.550;2023-04-26T04:46:44;101208.09;;;1.81;100.00
54808;BME280;40708;50.364;7.550;2023-04-26T04:49:10;101196.34;;;2.10;100.00
54808;BME280;40708;50.364;7.550;2023-04-26T04:51:36;101182.78;;;2.37;100.00
54808;BME280;40708;50.364;7.550;2023-04-26T04:54:12;101182.00;;;2.78;100.00
54808;BME280;40708;50.364;7.550;2023-04-26T04:56:38;101164.34;;;3.16;100.00
54808;BME280;40708;50.364;7.550;2023-04-26T04:59:04;101173.97;;;3.58;100.00
54808;BME280;40708;50.364;7.550;2023-04-26T05:01:33;101161.59;;;4.00;100.00
54808;BME280;40708;50.364;7.550;2023-04-26T05:03:58;101127.22;;;4.40;100.00
54808;BME280;40708;50.364;7.550;2023-04-26T05:06:25;101098.28;;;4.89;100.00
54808;BME280;40708;50.364;7.550;2023-04-26T05:08:51;101048.22;;;5.40;100.00
54808;BME280;40708;50.364;7.550;2023-04-26T05:11:17;101022.75;;;5.97;100.00
54808;BME280;40708;50.364;7.550;2023-04-26T05:13:42;100957.50;;;6.54;100.00
54808;BME280;40708;50.364;7.550;2023-04-26T05:16:07;100918.72;;;6.86;100.00
54808;BME280;40708;50.364;7.550;2023-04-26T05:18:32;100875.53;;;6.83;100.00
54808;BME280;40708;50.364;7.550;2023-04-26T05:20:58;100862.69;;;6.98;100.00
54808;BME280;40708;50.364;7.550;2023-04-26T05:23:23;100855.25;;;7.20;100.00
54808;BME280;40708;50.364;7.550;2023-04-26T05:25:48;100844.34;;;7.04;100.00
54808;BME280;40708;50.364;7.550;2023-04-26T05:28:15;100828.28;;;6.93;100.00
54808;BME280;40708;50.364;7.550;2023-04-26T05:30:40;100829.81;;;7.23;100.00
54808;BME280;40708;50.364;7.550;2023-04-26T05:33:06;100824.66;;;7.78;100.00
54808;BME280;40708;50.364;7.550;2023-04-26T05:35:32;100810.09;;;8.55;100.00
54808;BME280;40708;50.364;7.550;2023-04-26T05:37:57;100794.72;;;8.91;100.00
54808;BME280;40708;50.364;7.550;2023-04-26T05:40:23;100794.66;;;9.65;100.00
54808;BME280;40708;50.364;7.550;2023-04-26T05:42:49;100785.34;;;10.09;100.00
54808;BME280;40708;50.364;7.550;2023-04-26T05:45:14;100780.38;;;10.55;100.00
54808;BME280;40708;50.364;7.550;2023-04-26T05:47:40;100775.06;;;10.53;100.00
54808;BME280;40708;50.364;7.550;2023-04-26T05:50:06;100765.59;;;11.08;100.00
54808;BME280;40708;50.364;7.550;2023-04-26T05:52:32;100756.84;;;11.49;100.00
54808;BME280;40708;50.364;7.550;2023-04-26T05:54:57;100759.56;;;12.17;100.00
54808;BME280;40708;50.364;7.550;2023-04-26T05:57:23;100760.44;;;11.75;100.00
54808;BME280;40708;50.364;7.550;2023-04-26T05:59:48;100762.22;;;11.76;100.00
54808;BME280;40708;50.364;7.550;2023-04-26T06:02:13;100770.09;;;11.47;100.00
54808;BME280;40708;50.364;7.550;2023-04-26T06:04:38;100764.59;;;10.82;100.00
54808;BME280;40708;50.364;7.550;2023-04-26T06:07:04;100776.59;;;10.13;100.00
54808;BME280;40708;50.364;7.550;2023-04-26T06:09:32;100784.72;;;9.40;100.00
54808;BME280;40708;50.364;7.550;2023-04-26T06:11:57;100799.06;;;8.86;100.00
54808;BME280;40708;50.364;7.550;2023-04-26T06:14:22;100799.94;;;8.85;100.00
54808;BME280;40708;50.364;7.550;2023-04-26T06:16:48;100798.78;;;8.65;100.00
54808;BME280;40708;50.364;7.550;2023-04-26T06:19:13;100812.09;;;8.73;100.00
54808;BME280;40708;50.364;7.550;2023-04-26T06:21:38;100807.94;;;8.28;100.00
54808;BME280;40708;50.364;7.550;2023-04-26T06:24:04;100808.09;;;7.85;100.00
54808;BME280;40708;50.364;7.550;2023-04-26T06:26:29;100816.38;;;8.08;100.00
54808;BME280;40708;50.364;7.550;2023-04-26T06:28:56;100812.19;;;8.79;100.00
54808;BME280;40708;50.364;7.550;2023-04-26T06:31:21;100801.88;;;8.98;100.00
54808;BME280;40708;50.364;7.550;2023-04-26T06:33:47;100801.56;;;8.74;100.00
54808;BME280;40708;50.364;7.550;2023-04-26T06:36:12;100804.91;;;9.32;100.00
54808;BME280;40708;50.364;7.550;2023-04-26T06:38:37;100796.69;;;9.92;100.00
54808;BME280;40708;50.364;7.550;2023-04-26T06:41:03;100790.75;;;10.20;100.00
54808;BME280;40708;50.364;7.550;2023-04-26T06:43:28;100786.56;;;10.60;100.00
54808;BME280;40708;50.364;7.550;2023-04-26T06:45:53;100791.00;;;10.56;100.00
54808;BME280;40708;50.364;7.550;2023-04-26T06:48:18;100777.22;;;11.47;100.00
54808;BME280;40708;50.364;7.550;2023-04-26T06:50:44;100780.78;;;11.59;100.00
54808;BME280;40708;50.364;7.550;2023-04-26T06:53:10;100785.16;;;11.38;100.00
54808;BME280;40708;50.364;7.550;2023-04-26T06:55:35;100785.03;;;11.04;100.00
54808;BME280;40708;50.364;7.550;2023-04-26T06:58:01;100780.72;;;11.36;100.00
54808;BME280;40708;50.364;7.550;2023-04-26T07:00:26;100781.44;;;10.89;100.00
54808;BME280;40708;50.364;7.550;2023-04-26T07:02:52;100790.25;;;10.79;100.00
54808;BME280;40708;50.364;7.550;2023-04-26T07:05:17;100777.97;;;11.09;100.00
54808;BME280;40708;50.364;7.550;2023-04-26T07:07:43;100779.03;;;11.82;100.00
54808;BME280;40708;50.364;7.550;2023-04-26T07:10:08;100779.94;;;12.16;100.00
54808;BME280;40708;50.364;7.550;2023-04-26T07:12:33;100774.59;;;12.37;100.00
54808;BME280;40708;50.364;7.550;2023-04-26T07:14:59;100762.13;;;12.53;100.00
54808;BME280;40708;50.364;7.550;2023-04-26T07:17:25;100772.75;;;12.65;100.00
54808;BME280;40708;50.364;7.550;2023-04-26T07:19:51;100759.28;;;13.13;100.00
54808;BME280;40708;50.364;7.550;2023-04-26T07:22:16;100760.88;;;13.43;100.00
54808;BME280;40708;50.364;7.550;2023-04-26T07:24:41;100756.59;;;13.17;100.00
54808;BME280;40708;50.364;7.550;2023-04-26T07:27:06;100748.56;;;13.21;100.00
54808;BME280;40708;50.364;7.550;2023-04-26T07:29:32;100749.06;;;13.82;100.00
54808;BME280;40708;50.364;7.550;2023-04-26T07:31:57;100750.53;;;14.16;100.00
54808;BME280;40708;50.364;7.550;2023-04-26T07:34:23;100747.75;;;14.27;100.00
54808;BME280;40708;50.364;7.550;2023-04-26T07:36:48;100737.00;;;15.75;100.00
54808;BME280;40708;50.364;7.550;2023-04-26T07:39:13;100737.47;;;15.46;100.00
54808;BME280;40708;50.364;7.550;2023-04-26T07:41:39;100728.00;;;15.21;100.00
54808;BME280;40708;50.364;7.550;2023-04-26T07:44:05;100730.78;;;15.13;95.67
54808;BME280;40708;50.364;7.550;2023-04-26T07:46:32;100733.22;;;14.60;100.00
54808;BME280;40708;50.364;7.550;2023-04-26T07:48:57;100745.78;;;14.49;100.00
54808;BME280;40708;50.364;7.550;2023-04-26T07:51:22;100725.84;;;14.80;100.00
54808;BME280;40708;50.364;7.550;2023-04-26T07:53:48;100726.44;;;15.03;98.86
54808;BME280;40708;50.364;7.550;2023-04-26T07:56:13;100731.09;;;14.89;93.16
54808;BME280;40708;50.364;7.550;2023-04-26T07:58:39;100730.19;;;15.56;93.14
54808;BME280;40708;50.364;7.550;2023-04-26T08:01:05;100733.09;;;15.95;85.19
54808;BME280;40708;50.364;7.550;2023-04-26T08:03:30;100741.25;;;15.28;95.04
54808;BME280;40708;50.364;7.550;2023-04-26T08:05:56;100734.97;;;15.31;90.79
54808;BME280;40708;50.364;7.550;2023-04-26T08:08:24;100733.28;;;15.24;91.23
54808;BME280;40708;50.364;7.550;2023-04-26T08:10:49;100738.16;;;14.93;86.50
54808;BME280;40708;50.364;7.550;2023-04-26T08:13:14;100745.44;;;14.79;90.09
54808;BME280;40708;50.364;7.550;2023-04-26T08:15:40;100746.78;;;14.40;85.75
54808;BME280;40708;50.364;7.550;2023-04-26T08:18:05;100748.59;;;14.35;98.22
54808;BME280;40708;50.364;7.550;2023-04-26T08:20:30;100745.19;;;14.18;95.84
54808;BME280;40708;50.364;7.550;2023-04-26T08:22:57;100746.88;;;14.28;99.65
54808;BME280;40708;50.364;7.550;2023-04-26T08:25:23;100739.47;;;14.59;99.83
54808;BME280;40708;50.364;7.550;2023-04-26T08:27:48;100739.50;;;14.56;97.24
54808;BME280;40708;50.364;7.550;2023-04-26T08:30:14;100740.41;;;14.52;92.21
54808;BME280;40708;50.364;7.550;2023-04-26T08:32:39;100740.88;;;14.88;84.70
54808;BME280;40708;50.364;7.550;2023-04-26T08:35:05;100733.81;;;14.86;82.51
54808;BME280;40708;50.364;7.550;2023-04-26T08:37:31;100731.28;;;15.96;77.69
54808;BME280;40708;50.364;7.550;2023-04-26T08:39:56;100732.31;;;15.87;71.18
54808;BME280;40708;50.364;7.550;2023-04-26T08:42:25;100732.63;;;15.07;76.18
54808;BME280;40708;50.364;7.550;2023-04-26T08:44:52;100723.31;;;15.93;70.23
54808;BME280;40708;50.364;7.550;2023-04-26T08:47:36;100723.03;;;16.11;65.73
54808;BME280;40708;50.364;7.550;2023-04-26T08:50:02;100719.84;;;15.30;73.22
54808;BME280;40708;50.364;7.550;2023-04-26T08:52:30;100715.22;;;15.97;76.75
54808;BME280;40708;50.364;7.550;2023-04-26T08:54:57;100714.47;;;15.88;65.70
54808;BME280;40708;50.364;7.550;2023-04-26T08:57:23;100725.19;;;14.60;67.57
54808;BME280;40708;50.364;7.550;2023-04-26T08:59:49;100726.75;;;13.92;74.67
54808;BME280;40708;50.364;7.550;2023-04-26T09:02:18;100718.03;;;13.70;79.57
54808;BME280;40708;50.364;7.550;2023-04-26T09:04:45;100718.25;;;14.44;82.31
54808;BME280;40708;50.364;7.550;2023-04-26T09:07:17;100708.25;;;14.64;71.31
54808;BME280;40708;50.364;7.550;2023-04-26T09:09:47;100715.06;;;14.89;70.05
54808;BME280;40708;50.364;7.550;2023-04-26T09:12:13;100716.41;;;14.50;69.74
54808;BME280;40708;50.364;7.550;2023-04-26T09:14:40;100707.28;;;15.35;62.73
54808;BME280;40708;50.364;7.550;2023-04-26T09:17:32;100702.91;;;15.29;64.79
54808;BME280;40708;50.364;7.550;2023-04-26T09:19:59;100706.53;;;15.27;65.56
54808;BME280;40708;50.364;7.550;2023-04-26T09:22:32;100696.16;;;15.64;61.59
54808;BME280;40708;50.364;7.550;2023-04-26T09:24:58;100705.53;;;14.65;62.41
54808;BME280;40708;50.364;7.550;2023-04-26T09:27:35;100708.81;;;14.08;68.01
54808;BME280;40708;50.364;7.550;2023-04-26T09:35:41;100720.31;;;12.84;83.29
54808;BME280;40708;50.364;7.550;2023-04-26T09:38:11;100710.69;;;12.48;87.89
54808;BME280;40708;50.364;7.550;2023-04-26T09:40:41;100714.00;;;13.15;90.43
54808;BME280;40708;50.364;7.550;2023-04-26T09:45:56;100699.25;;;13.89;74.33
54808;BME280;40708;50.364;7.550;2023-04-26T09:48:32;100704.84;;;14.50;76.41
54808;BME280;40708;50.364;7.550;2023-04-26T09:51:08;100693.16;;;15.27;64.61
54808;BME280;40708;50.364;7.550;2023-04-26T09:53:37;100691.09;;;16.00;60.16
54808;BME280;40708;50.364;7.550;2023-04-26T09:56:16;100695.03;;;15.22;58.02
54808;BME280;40708;50.364;7.550;2023-04-26T10:01:09;100691.72;;;15.00;61.18
54808;BME280;40708;50.364;7.550;2023-04-26T10:03:36;100686.00;;;15.27;60.33
54808;BME280;40708;50.364;7.550;2023-04-26T10:06:02;100683.63;;;15.08;61.39
54808;BME280;40708;50.364;7.550;2023-04-26T10:08:28;100676.88;;;15.97;57.59
54808;BME280;40708;50.364;7.550;2023-04-26T10:10:54;100672.03;;;17.04;53.04
54808;BME280;40708;50.364;7.550;2023-04-26T10:13:20;100662.59;;;17.65;50.10
54808;BME280;40708;50.364;7.550;2023-04-26T10:15:46;100662.25;;;17.03;46.94
54808;BME280;40708;50.364;7.550;2023-04-26T10:18:12;100667.50;;;17.08;46.72
54808;BME280;40708;50.364;7.550;2023-04-26T10:20:39;100666.13;;;16.46;47.52
54808;BME280;40708;50.364;7.550;2023-04-26T10:23:12;100658.94;;;16.92;48.17
54808;BME280;40708;50.364;7.550;2023-04-26T10:25:40;100665.00;;;16.99;47.45
54808;BME280;40708;50.364;7.550;2023-04-26T10:28:06;100653.72;;;17.23;46.57
54808;BME280;40708;50.364;7.550;2023-04-26T10:30:32;100656.53;;;17.18;46.20
54808;BME280;40708;50.364;7.550;2023-04-26T10:35:25;100656.19;;;16.95;46.17
54808;BME280;40708;50.364;7.550;2023-04-26T10:40:32;100640.38;;;17.21;46.10
54808;BME280;40708;50.364;7.550;2023-04-26T10:45:32;100640.03;;;16.98;45.38
54808;BME280;40708;50.364;7.550;2023-04-26T10:53:23;100644.56;;;16.07;47.87
54808;BME280;40708;50.364;7.550;2023-04-26T10:55:48;100640.38;;;16.39;48.56
54808;BME280;40708;50.364;7.550;2023-04-26T11:01:14;100628.38;;;17.01;46.76
54808;BME280;40708;50.364;7.550;2023-04-26T11:06:22;100616.22;;;16.85;46.11
54808;BME280;40708;50.364;7.550;2023-04-26T11:08:48;100621.28;;;16.98;45.57
54808;BME280;40708;50.364;7.550;2023-04-26T11:11:16;100619.81;;;16.41;46.11
54808;BME280;40708;50.364;7.550;2023-04-26T11:13:44;100623.81;;;15.73;47.43
54808;BME280;40708;50.364;7.550;2023-04-26T11:16:12;100635.25;;;15.81;48.23
54808;BME280;40708;50.364;7.550;2023-04-26T11:18:40;100629.19;;;15.15;48.09
54808;BME280;40708;50.364;7.550;2023-04-26T11:21:06;100632.25;;;14.89;48.65
54808;BME280;40708;50.364;7.550;2023-04-26T11:23:32;100625.81;;;15.02;49.59
54808;BME280;40708;50.364;7.550;2023-04-26T11:25:58;100620.59;;;15.53;48.99
54808;BME280;40708;50.364;7.550;2023-04-26T11:28:26;100619.34;;;15.18;50.60
54808;BME280;40708;50.364;7.550;2023-04-26T11:30:52;100615.94;;;15.65;51.35
54808;BME280;40708;50.364;7.550;2023-04-26T11:33:19;100606.94;;;16.15;50.04
54808;BME280;40708;50.364;7.550;2023-04-26T11:35:47;100607.81;;;16.16;48.55
54808;BME280;40708;50.364;7.550;2023-04-26T11:38:13;100617.06;;;15.51;50.39
54808;BME280;40708;50.364;7.550;2023-04-26T11:40:39;100609.16;;;15.41;49.69
54808;BME280;40708;50.364;7.550;2023-04-26T11:43:06;100610.81;;;16.00;48.18
54808;BME280;40708;50.364;7.550;2023-04-26T11:45:33;100607.16;;;15.57;47.38
54808;BME280;40708;50.364;7.550;2023-04-26T11:48:00;100607.06;;;15.60;47.49
54808;BME280;40708;50.364;7.550;2023-04-26T11:50:26;100607.06;;;15.60;48.34
54808;BME280;40708;50.364;7.550;2023-04-26T11:52:54;100605.56;;;15.42;48.64
54808;BME280;40708;50.364;7.550;2023-04-26T11:55:26;100597.31;;;15.58;48.24
54808;BME280;40708;50.364;7.550;2023-04-26T11:57:53;100599.34;;;15.42;48.93
54808;BME280;40708;50.364;7.550;2023-04-26T12:00:18;100583.13;;;16.01;48.52
54808;BME280;40708;50.364;7.550;2023-04-26T12:02:46;100592.72;;;16.13;47.83
54808;BME280;40708;50.364;7.550;2023-04-26T12:07:53;100585.47;;;16.18;48.27
54808;BME280;40708;50.364;7.550;2023-04-26T12:10:23;100584.78;;;16.50;46.01
54808;BME280;40708;50.364;7.550;2023-04-26T12:12:50;100593.75;;;15.59;47.87
54808;BME280;40708;50.364;7.550;2023-04-26T12:15:17;100595.81;;;15.40;49.41
54808;BME280;40708;50.364;7.550;2023-04-26T12:17:59;100591.78;;;15.68;49.47
54808;BME280;40708;50.364;7.550;2023-04-26T12:20:33;100588.09;;;15.74;49.06
54808;BME280;40708;50.364;7.550;2023-04-26T12:23:01;100593.69;;;15.08;49.69
54808;BME280;40708;50.364;7.550;2023-04-26T12:25:27;100603.28;;;14.59;50.12
54808;BME280;40708;50.364;7.550;2023-04-26T12:27:54;100594.13;;;14.78;51.57
54808;BME280;40708;50.364;7.550;2023-04-26T12:30:19;100591.72;;;15.18;52.94
54808;BME280;40708;50.364;7.550;2023-04-26T12:32:45;100592.44;;;15.29;50.10
54808;BME280;40708;50.364;7.550;2023-04-26T12:35:11;100581.09;;;15.15;52.65
54808;BME280;40708;50.364;7.550;2023-04-26T12:37:36;100582.28;;;14.96;54.51
54808;BME280;40708;50.364;7.550;2023-04-26T12:40:02;100587.50;;;14.41;53.74
54808;BME280;40708;50.364;7.550;2023-04-26T12:42:27;100582.53;;;14.09;54.58
54808;BME280;40708;50.364;7.550;2023-04-26T12:44:53;100583.19;;;14.29;56.53
54808;BME280;40708;50.364;7.550;2023-04-26T12:47:18;100584.44;;;13.99;54.20
54808;BME280;40708;50.364;7.550;2023-04-26T12:49:43;100586.72;;;13.49;56.70
54808;BME280;40708;50.364;7.550;2023-04-26T12:52:09;100574.91;;;14.52;54.78
54808;BME280;40708;50.364;7.550;2023-04-26T12:54:34;100574.97;;;15.08;52.24
54808;BME280;40708;50.364;7.550;2023-04-26T12:56:59;100568.19;;;14.86;53.70
54808;BME280;40708;50.364;7.550;2023-04-26T12:59:26;100585.75;;;14.40;55.57
54808;BME280;40708;50.364;7.550;2023-04-26T13:01:51;100596.72;;;14.12;55.92
54808;BME280;40708;50.364;7.550;2023-04-26T13:04:16;100600.22;;;14.17;54.51
54808;BME280;40708;50.364;7.550;2023-04-26T13:06:42;100587.41;;;14.48;53.80
54808;BME280;40708;50.364;7.550;2023-04-26T13:09:07;100589.78;;;14.69;52.83
54808;BME280;40708;50.364;7.550;2023-04-26T13:11:33;100592.53;;;14.63;53.05
54808;BME280;40708;50.364;7.550;2023-04-26T13:13:58;100587.09;;;14.72;53.12
54808;BME280;40708;50.364;7.550;2023-04-26T13:16:24;100594.00;;;14.18;54.53